Time;durP1;ratioP1;P1;durP2;ratioP2;P2;SDS_P1;SDS_P2;PMS_P1;PMS_P2;Temp;Humidity;BMP_temperature;BMP_pressure;BME280_temperature;BME280_humidity;BME280_pressure;Samples;Min_cycle;Max_cycle;Signal;HPM_P1;HPM_P2
2024/03/14 00:02:09;;;;;;;4.75;1.10;;;;;;;;;;5070499;28;20043;-59
2024/03/14 00:04:34;;;;;;;3.33;0.98;;;;;;;;;;5070651;28;20048;-59
2024/03/14 00:07:01;;;;;;;4.85;1.20;;;;;;;;;;5070699;28;20589;-56
2024/03/14 00:09:26;;;;;;;3.45;1.00;;;;;;;;;;5070402;28;20024;-55
2024/03/14 00:11:52;;;;;;;2.50;0.82;;;;;;;;;;5070536;28;20044;-58
2024/03/14 00:14:17;;;;;;;2.33;0.90;;;;;;;;;;5070373;28;20028;-51
2024/03/14 00:16:43;;;;;;;3.42;0.90;;;;;;;;;;5070411;28;20049;-55
2024/03/14 00:19:08;;;;;;;3.90;0.73;;;;;;;;;;5070251;28;20052;-49
2024/03/14 00:21:37;;;;;;;2.03;0.80;;;;;;;;;;5070011;28;20032;-52
2024/03/14 00:24:02;;;;;;;1.77;0.75;;;;;;;;;;5069427;28;20546;-54
2024/03/14 00:26:30;;;;;;;3.25;1.02;;;;;;;;;;5069344;28;20040;-51
2024/03/14 00:28:55;;;;;;;1.98;0.90;;;;;;;;;;5070703;28;20383;-51
2024/03/14 00:31:21;;;;;;;2.17;0.70;;;;;;;;;;5070347;28;20032;-49
2024/03/14 00:33:46;;;;;;;2.83;0.77;;;;;;;;;;5069818;28;20051;-54
2024/03/14 00:36:14;;;;;;;5.25;1.02;;;;;;;;;;5070269;28;20028;-54
2024/03/14 00:38:41;;;;;;;2.05;0.77;;;;;;;;;;5070357;28;20047;-57
2024/03/14 00:41:10;;;;;;;2.58;0.90;;;;;;;;;;5069932;28;20048;-54
2024/03/14 00:43:36;;;;;;;2.47;0.82;;;;;;;;;;5070324;28;20365;-54
2024/03/14 00:46:02;;;;;;;2.92;0.90;;;;;;;;;;5070490;28;20043;-52
2024/03/14 00:48:27;;;;;;;2.15;0.70;;;;;;;;;;5069888;28;20047;-56
2024/03/14 00:50:53;;;;;;;1.73;0.65;;;;;;;;;;5070109;28;20586;-53
2024/03/14 00:53:18;;;;;;;3.60;0.85;;;;;;;;;;5070079;28;20078;-55
2024/03/14 00:55:44;;;;;;;1.65;0.80;;;;;;;;;;5070275;28;20078;-55
2024/03/14 00:58:10;;;;;;;3.45;1.20;;;;;;;;;;5069463;28;20391;-54
2024/03/14 01:00:36;;;;;;;3.08;0.82;;;;;;;;;;5067621;28;20028;-54
2024/03/14 01:03:02;;;;;;;1.38;0.60;;;;;;;;;;5073323;28;20041;-53
2024/03/14 01:05:27;;;;;;;1.58;0.73;;;;;;;;;;5055875;28;20028;-54
2024/03/14 01:07:53;;;;;;;1.65;0.75;;;;;;;;;;5074136;28;20032;-51
2024/03/14 01:10:19;;;;;;;1.52;0.70;;;;;;;;;;5070528;28;20094;-52
2024/03/14 01:12:46;;;;;;;4.30;0.80;;;;;;;;;;5073734;28;20036;-51
2024/03/14 01:15:13;;;;;;;2.83;1.00;;;;;;;;;;5061768;28;20036;-54
2024/03/14 01:17:39;;;;;;;3.53;0.93;;;;;;;;;;5073711;28;20045;-54
2024/03/14 01:20:10;;;;;;;1.80;0.70;;;;;;;;;;5073375;28;20056;-55
2024/03/14 01:22:36;;;;;;;1.67;0.73;;;;;;;;;;5073966;28;20384;-53
2024/03/14 01:25:01;;;;;;;1.35;0.70;;;;;;;;;;5073821;28;20373;-55
2024/03/14 01:27:27;;;;;;;2.20;0.80;;;;;;;;;;5073267;28;20160;-50
2024/03/14 01:29:52;;;;;;;2.95;0.70;;;;;;;;;;5073757;28;20032;-51
2024/03/14 01:32:17;;;;;;;2.45;0.82;;;;;;;;;;5073718;28;20048;-50
2024/03/14 01:34:43;;;;;;;1.42;0.60;;;;;;;;;;5073323;28;20081;-54
2024/03/14 01:37:10;;;;;;;2.22;0.70;;;;;;;;;;5073127;28;20097;-53
2024/03/14 01:39:37;;;;;;;1.30;0.73;;;;;;;;;;5073354;28;20032;-50
2024/03/14 01:42:05;;;;;;;7.55;0.80;;;;;;;;;;5073852;28;20036;-52
2024/03/14 01:44:54;;;;;;;1.92;0.80;;;;;;;;;;5064404;28;20396;-50
2024/03/14 01:47:21;;;;;;;1.85;0.80;;;;;;;;;;5070823;28;20075;-53
2024/03/14 01:49:47;;;;;;;1.73;0.70;;;;;;;;;;5073280;28;20032;-52
2024/03/14 01:52:13;;;;;;;3.10;0.75;;;;;;;;;;5072275;28;20033;-53
2024/03/14 01:54:39;;;;;;;1.00;0.65;;;;;;;;;;5066170;28;20407;-58
2024/03/14 01:57:04;;;;;;;2.72;0.95;;;;;;;;;;5071658;28;20032;-58
2024/03/14 01:59:30;;;;;;;1.27;0.68;;;;;;;;;;5072526;28;20040;-57
2024/03/14 02:01:56;;;;;;;1.55;0.68;;;;;;;;;;5072409;28;20040;-55
2024/03/14 02:04:27;;;;;;;1.48;0.70;;;;;;;;;;5073059;28;20035;-57
2024/03/14 02:07:08;;;;;;;2.13;0.73;;;;;;;;;;5054043;28;20491;-59
2024/03/14 02:09:34;;;;;;;1.85;0.70;;;;;;;;;;5072577;28;20688;-60
2024/03/14 02:12:00;;;;;;;1.27;0.60;;;;;;;;;;5073223;28;20048;-50
2024/03/14 02:14:25;;;;;;;2.70;0.80;;;;;;;;;;5072178;28;20060;-51
2024/03/14 02:16:50;;;;;;;3.28;0.70;;;;;;;;;;5072717;28;20454;-55
2024/03/14 02:19:16;;;;;;;1.42;0.70;;;;;;;;;;5072802;28;20048;-52
2024/03/14 02:21:41;;;;;;;4.38;0.80;;;;;;;;;;5072671;28;20079;-53
2024/03/14 02:24:07;;;;;;;1.40;0.60;;;;;;;;;;5072319;28;20037;-51
2024/03/14 02:26:38;;;;;;;1.35;0.70;;;;;;;;;;5072676;28;20040;-53
2024/03/14 02:29:03;;;;;;;2.50;0.60;;;;;;;;;;5072521;28;20391;-53
2024/03/14 02:31:29;;;;;;;1.63;0.63;;;;;;;;;;5072499;28;20036;-54
2024/03/14 02:33:54;;;;;;;1.88;0.60;;;;;;;;;;5072882;28;20048;-48
2024/03/14 02:36:20;;;;;;;2.28;0.70;;;;;;;;;;5072136;28;20123;-53
2024/03/14 02:38:45;;;;;;;1.75;0.77;;;;;;;;;;5072353;28;20111;-48
2024/03/14 02:41:10;;;;;;;2.10;0.60;;;;;;;;;;5072264;28;20082;-50
2024/03/14 02:43:36;;;;;;;1.50;0.60;;;;;;;;;;5072483;28;20107;-53
2024/03/14 02:46:02;;;;;;;2.38;0.73;;;;;;;;;;5072280;28;20033;-53
2024/03/14 02:48:27;;;;;;;2.33;0.90;;;;;;;;;;5072198;28;20051;-50
2024/03/14 02:50:54;;;;;;;2.33;0.90;;;;;;;;;;5072318;28;20036;-50
2024/03/14 02:53:19;;;;;;;2.35;0.80;;;;;;;;;;5072360;28;20048;-52
2024/03/14 02:55:45;;;;;;;1.52;0.70;;;;;;;;;;5071703;28;20166;-52
2024/03/14 02:58:11;;;;;;;1.48;0.68;;;;;;;;;;5072219;28;20029;-52
2024/03/14 03:00:36;;;;;;;1.98;0.70;;;;;;;;;;5072122;28;20044;-53
2024/03/14 03:03:01;;;;;;;2.05;0.88;;;;;;;;;;5071445;28;20048;-51
2024/03/14 03:05:27;;;;;;;1.80;0.80;;;;;;;;;;5071593;28;20032;-55
2024/03/14 03:07:54;;;;;;;1.80;0.70;;;;;;;;;;5071837;28;20071;-50
2024/03/14 03:10:22;;;;;;;1.98;0.75;;;;;;;;;;5071565;28;20133;-53
2024/03/14 03:12:48;;;;;;;1.67;0.70;;;;;;;;;;5071632;28;20700;-51
2024/03/14 03:15:14;;;;;;;1.23;0.60;;;;;;;;;;5071875;28;20048;-51
2024/03/14 03:17:40;;;;;;;0.95;0.50;;;;;;;;;;5071544;28;20040;-54
2024/03/14 03:20:10;;;;;;;1.23;0.57;;;;;;;;;;5071452;28;20463;-50
2024/03/14 03:25:22;;;;;;;1.50;0.57;;;;;;;;;;5070341;28;20044;-55
2024/03/14 03:27:47;;;;;;;1.38;0.60;;;;;;;;;;5071190;28;20040;-50
2024/03/14 03:30:13;;;;;;;2.60;0.77;;;;;;;;;;5071698;28;20102;-50
2024/03/14 03:32:38;;;;;;;1.92;0.70;;;;;;;;;;5071468;28;20036;-52
2024/03/14 03:35:04;;;;;;;3.55;0.85;;;;;;;;;;5070902;28;20059;-53
2024/03/14 03:37:29;;;;;;;1.20;0.63;;;;;;;;;;5071230;28;20043;-52
2024/03/14 03:39:56;;;;;;;1.38;0.65;;;;;;;;;;5071178;28;20037;-49
2024/03/14 03:42:22;;;;;;;3.08;0.70;;;;;;;;;;5070449;28;20040;-53
2024/03/14 03:44:49;;;;;;;1.95;0.60;;;;;;;;;;5071324;28;20040;-49
2024/03/14 03:47:16;;;;;;;2.05;0.70;;;;;;;;;;5070800;28;20456;-54
2024/03/14 03:49:42;;;;;;;1.15;0.60;;;;;;;;;;5070872;28;20059;-53
2024/03/14 03:52:08;;;;;;;3.90;0.70;;;;;;;;;;5070976;28;20488;-49
2024/03/14 03:54:33;;;;;;;1.48;0.65;;;;;;;;;;5053432;28;20060;-53
2024/03/14 03:56:58;;;;;;;1.23;0.60;;;;;;;;;;5070546;28;20123;-53
2024/03/14 03:59:24;;;;;;;1.05;0.60;;;;;;;;;;5070684;28;20115;-53
2024/03/14 04:01:50;;;;;;;2.10;0.77;;;;;;;;;;5070896;28;20384;-51
2024/03/14 04:04:17;;;;;;;2.05;0.80;;;;;;;;;;5070159;28;20124;-48
2024/03/14 04:06:43;;;;;;;1.35;0.60;;;;;;;;;;5070444;28;20047;-52
2024/03/14 04:09:14;;;;;;;1.55;0.70;;;;;;;;;;5070906;28;20420;-51
2024/03/14 04:11:41;;;;;;;1.75;0.70;;;;;;;;;;5065835;28;20048;-52
2024/03/14 04:14:09;;;;;;;1.83;0.57;;;;;;;;;;5068170;28;20044;-51
2024/03/14 04:16:35;;;;;;;2.75;0.68;;;;;;;;;;5070795;28;20032;-53
2024/03/14 04:19:00;;;;;;;1.85;0.80;;;;;;;;;;5070452;28;20039;-49
2024/03/14 04:21:26;;;;;;;1.10;0.60;;;;;;;;;;5069198;28;20079;-51
2024/03/14 04:23:51;;;;;;;1.83;0.70;;;;;;;;;;5070685;28;20032;-49
2024/03/14 04:26:17;;;;;;;0.98;0.55;;;;;;;;;;5070421;28;20040;-50
2024/03/14 04:28:44;;;;;;;1.83;0.60;;;;;;;;;;5069678;28;20195;-54
2024/03/14 04:31:09;;;;;;;0.77;0.50;;;;;;;;;;5070476;28;20093;-53
2024/03/14 04:33:35;;;;;;;2.20;0.70;;;;;;;;;;5068892;28;20434;-53
2024/03/14 04:36:03;;;;;;;1.65;0.60;;;;;;;;;;5070096;28;20086;-52
2024/03/14 04:38:28;;;;;;;1.65;0.60;;;;;;;;;;5070101;28;20028;-54
2024/03/14 04:40:56;;;;;;;1.48;0.70;;;;;;;;;;5070401;28;20047;-52
2024/03/14 04:43:24;;;;;;;1.27;0.60;;;;;;;;;;5069986;28;20041;-51
2024/03/14 04:45:51;;;;;;;1.98;0.68;;;;;;;;;;5070240;28;20044;-50
2024/03/14 04:48:17;;;;;;;2.13;0.65;;;;;;;;;;5070296;28;20042;-51
2024/03/14 04:50:43;;;;;;;1.52;0.70;;;;;;;;;;5070145;28;20047;-54
2024/03/14 04:53:09;;;;;;;2.33;0.80;;;;;;;;;;5070107;28;20645;-48
2024/03/14 04:55:35;;;;;;;0.65;0.47;;;;;;;;;;5070213;28;20067;-51
2024/03/14 04:58:00;;;;;;;1.92;0.65;;;;;;;;;;5069789;28;20105;-50
2024/03/14 05:00:26;;;;;;;1.17;0.63;;;;;;;;;;5069491;28;20024;-52
2024/03/14 05:02:51;;;;;;;1.00;0.60;;;;;;;;;;5070189;28;20044;-51
2024/03/14 05:05:20;;;;;;;1.35;0.50;;;;;;;;;;5069551;28;20036;-49
2024/03/14 05:07:48;;;;;;;1.67;0.75;;;;;;;;;;5069366;28;20123;-54
2024/03/14 05:10:14;;;;;;;1.38;0.60;;;;;;;;;;5069929;28;20063;-50
2024/03/14 05:12:39;;;;;;;1.73;0.80;;;;;;;;;;5070129;28;20068;-50
2024/03/14 05:15:07;;;;;;;2.70;0.77;;;;;;;;;;5069784;28;20028;-50
2024/03/14 05:17:32;;;;;;;1.07;0.60;;;;;;;;;;5069920;28;20127;-53
2024/03/14 05:19:58;;;;;;;2.27;0.87;;;;;;;;;;5070167;28;20191;-50
2024/03/14 05:22:23;;;;;;;1.17;0.63;;;;;;;;;;5069849;28;20064;-53
2024/03/14 05:24:48;;;;;;;1.60;0.80;;;;;;;;;;5069706;28;20455;-49
2024/03/14 05:27:14;;;;;;;3.45;0.70;;;;;;;;;;5069911;28;20061;-51
2024/03/14 05:29:39;;;;;;;2.40;0.90;;;;;;;;;;5069864;28;20048;-53
2024/03/14 05:32:11;;;;;;;1.08;0.57;;;;;;;;;;5069454;28;20036;-53
2024/03/14 05:34:37;;;;;;;1.33;0.60;;;;;;;;;;5069599;28;20047;-53
2024/03/14 05:37:02;;;;;;;1.45;0.70;;;;;;;;;;5069901;28;20605;-50
2024/03/14 05:39:28;;;;;;;2.05;0.90;;;;;;;;;;5069367;28;20040;-50
2024/03/14 05:41:53;;;;;;;1.45;0.60;;;;;;;;;;5069793;28;20527;-52
2024/03/14 05:44:18;;;;;;;1.52;0.60;;;;;;;;;;5069578;28;20387;-53
2024/03/14 05:46:46;;;;;;;0.88;0.65;;;;;;;;;;5069621;28;20040;-51
2024/03/14 05:49:12;;;;;;;2.35;0.60;;;;;;;;;;5068110;28;20190;-49
2024/03/14 05:51:37;;;;;;;1.42;0.95;;;;;;;;;;5073641;28;20622;-51
2024/03/14 05:54:03;;;;;;;1.98;0.75;;;;;;;;;;5073219;28;20046;-52
2024/03/14 05:56:28;;;;;;;0.68;0.50;;;;;;;;;;5073275;28;20260;-51
2024/03/14 05:58:54;;;;;;;1.83;0.70;;;;;;;;;;5073245;28;20036;-51
2024/03/14 06:01:19;;;;;;;3.08;0.80;;;;;;;;;;5072920;28;20056;-52
2024/03/14 06:03:46;;;;;;;1.17;0.70;;;;;;;;;;5073011;28;20080;-54
2024/03/14 06:06:13;;;;;;;1.15;0.50;;;;;;;;;;5072366;28;20055;-55
2024/03/14 06:08:40;;;;;;;1.40;0.60;;;;;;;;;;5073487;28;20082;-52
2024/03/14 06:11:05;;;;;;;1.33;0.60;;;;;;;;;;5073113;28;20044;-53
2024/03/14 06:13:31;;;;;;;1.95;0.43;;;;;;;;;;5072808;28;20492;-53
2024/03/14 06:15:57;;;;;;;1.60;0.60;;;;;;;;;;5073148;28;20044;-49
2024/03/14 06:18:22;;;;;;;1.75;0.60;;;;;;;;;;5072256;28;20032;-52
2024/03/14 06:20:48;;;;;;;1.00;0.65;;;;;;;;;;5072605;28;20507;-54
2024/03/14 06:23:14;;;;;;;1.13;0.70;;;;;;;;;;5072661;28;20054;-53
2024/03/14 06:25:40;;;;;;;2.65;0.75;;;;;;;;;;5072544;28;20040;-53
2024/03/14 06:28:05;;;;;;;3.30;0.70;;;;;;;;;;5072468;28;20032;-50
2024/03/14 06:30:30;;;;;;;1.17;0.60;;;;;;;;;;5072590;28;20051;-53
2024/03/14 06:32:56;;;;;;;0.95;0.50;;;;;;;;;;5072749;28;20032;-50
2024/03/14 06:35:21;;;;;;;1.83;0.75;;;;;;;;;;5072252;28;20036;-53
2024/03/14 06:37:47;;;;;;;2.13;0.85;;;;;;;;;;5072619;28;20040;-52
2024/03/14 06:40:16;;;;;;;0.93;0.60;;;;;;;;;;5072413;28;20068;-51
2024/03/14 06:42:41;;;;;;;1.92;0.70;;;;;;;;;;5071949;28;20498;-53
2024/03/14 06:45:07;;;;;;;4.45;0.80;;;;;;;;;;5072256;28;20119;-52
2024/03/14 06:47:35;;;;;;;4.07;0.80;;;;;;;;;;5072669;28;20037;-54
2024/03/14 06:50:02;;;;;;;1.55;0.70;;;;;;;;;;5072176;28;20033;-49
2024/03/14 06:52:28;;;;;;;1.77;0.70;;;;;;;;;;5072189;28;20133;-54
2024/03/14 06:54:54;;;;;;;1.95;0.63;;;;;;;;;;5071976;28;20127;-52
2024/03/14 06:57:20;;;;;;;1.27;0.60;;;;;;;;;;5070207;28;20032;-53
2024/03/14 06:59:48;;;;;;;0.90;0.50;;;;;;;;;;5067582;28;20399;-55
2024/03/14 07:02:18;;;;;;;1.27;0.70;;;;;;;;;;5072225;28;20036;-49
2024/03/14 07:04:43;;;;;;;2.28;0.55;;;;;;;;;;5071710;28;20029;-59
2024/03/14 07:07:11;;;;;;;2.33;0.82;;;;;;;;;;5071767;28;20040;-58
2024/03/14 07:09:39;;;;;;;1.83;0.70;;;;;;;;;;5072002;28;20032;-59
2024/03/14 07:12:11;;;;;;;1.08;0.65;;;;;;;;;;5071923;28;20063;-57
2024/03/14 07:14:36;;;;;;;1.10;0.52;;;;;;;;;;5071177;28;20491;-58
2024/03/14 07:17:02;;;;;;;2.28;0.50;;;;;;;;;;5071878;28;20106;-58
2024/03/14 07:19:27;;;;;;;1.23;0.60;;;;;;;;;;5069032;28;20064;-55
2024/03/14 07:21:56;;;;;;;3.45;0.70;;;;;;;;;;5071062;28;20408;-58
2024/03/14 07:24:23;;;;;;;1.73;0.63;;;;;;;;;;5071471;28;20489;-52
2024/03/14 07:26:48;;;;;;;1.15;0.57;;;;;;;;;;5071290;28;20031;-54
2024/03/14 07:29:14;;;;;;;1.40;0.57;;;;;;;;;;5070830;28;20040;-52
2024/03/14 07:31:42;;;;;;;2.60;0.95;;;;;;;;;;5053615;28;20049;-51
2024/03/14 07:34:10;;;;;;;0.90;0.50;;;;;;;;;;5071379;28;20078;-50
2024/03/14 07:36:38;;;;;;;1.85;0.60;;;;;;;;;;5070829;28;20080;-54
2024/03/14 07:39:04;;;;;;;0.55;0.40;;;;;;;;;;5071306;28;20114;-53
2024/03/14 07:41:29;;;;;;;1.33;0.70;;;;;;;;;;5071222;28;20111;-53
2024/03/14 07:43:55;;;;;;;1.58;0.70;;;;;;;;;;5071044;28;20071;-53
2024/03/14 07:46:20;;;;;;;2.75;0.57;;;;;;;;;;5070968;28;20079;-54
2024/03/14 07:48:53;;;;;;;1.33;0.60;;;;;;;;;;5071255;28;20150;-52
2024/03/14 07:51:19;;;;;;;4.55;1.55;;;;;;;;;;5070715;28;20593;-54
2024/03/14 07:53:46;;;;;;;1.35;0.70;;;;;;;;;;5070813;28;20049;-49
2024/03/14 07:56:13;;;;;;;1.23;0.60;;;;;;;;;;5070725;28;20112;-51
2024/03/14 07:58:39;;;;;;;1.30;0.70;;;;;;;;;;5070767;28;20557;-54
2024/03/14 08:01:09;;;;;;;1.35;0.77;;;;;;;;;;5070360;28;20036;-59
2024/03/14 08:03:42;;;;;;;1.75;0.70;;;;;;;;;;5070641;28;20531;-60
2024/03/14 08:06:08;;;;;;;1.75;0.80;;;;;;;;;;5070494;28;20047;-57
2024/03/14 08:08:34;;;;;;;1.80;0.70;;;;;;;;;;5070123;28;20044;-58
2024/03/14 08:11:03;;;;;;;1.55;0.80;;;;;;;;;;5069938;28;20056;-59
2024/03/14 08:13:31;;;;;;;2.38;0.82;;;;;;;;;;5069982;28;20054;-51
2024/03/14 08:16:08;;;;;;;1.90;0.80;;;;;;;;;;5070234;28;20093;-50
2024/03/14 08:18:39;;;;;;;2.58;0.80;;;;;;;;;;5070531;28;20111;-49
2024/03/14 08:21:07;;;;;;;2.90;1.10;;;;;;;;;;5070272;28;20127;-54
2024/03/14 08:23:33;;;;;;;1.38;0.77;;;;;;;;;;5066603;28;20040;-53
2024/03/14 08:25:59;;;;;;;2.47;0.88;;;;;;;;;;5069714;28;20436;-53
2024/03/14 08:28:25;;;;;;;2.65;1.02;;;;;;;;;;5067804;28;20071;-54
2024/03/14 08:30:51;;;;;;;1.23;0.70;;;;;;;;;;5069689;28;20052;-55
2024/03/14 08:33:16;;;;;;;2.47;0.70;;;;;;;;;;5070858;28;20464;-54
2024/03/14 08:35:42;;;;;;;2.70;0.80;;;;;;;;;;5070783;28;20041;-53
2024/03/14 08:38:08;;;;;;;1.88;0.80;;;;;;;;;;5070508;28;20040;-53
2024/03/14 08:40:34;;;;;;;2.15;0.90;;;;;;;;;;5069259;28;20384;-54
2024/03/14 08:43:00;;;;;;;3.47;0.88;;;;;;;;;;5069916;28;20036;-52
2024/03/14 08:45:25;;;;;;;2.33;0.68;;;;;;;;;;5069673;28;20035;-51
2024/03/14 08:47:51;;;;;;;2.25;0.75;;;;;;;;;;5069873;28;20089;-53
2024/03/14 08:50:20;;;;;;;1.35;0.63;;;;;;;;;;5069983;28;20044;-49
2024/03/14 08:52:46;;;;;;;2.05;0.77;;;;;;;;;;5057895;28;20143;-60
2024/03/14 08:55:25;;;;;;;2.92;0.63;;;;;;;;;;5070041;28;20144;-54
2024/03/14 08:57:51;;;;;;;4.03;0.80;;;;;;;;;;5071388;28;20086;-59
2024/03/14 09:00:17;;;;;;;1.58;0.70;;;;;;;;;;5071483;28;20036;-58
2024/03/14 09:02:43;;;;;;;1.17;0.60;;;;;;;;;;5068053;28;20645;-60
2024/03/14 09:05:11;;;;;;;1.85;0.73;;;;;;;;;;5068165;28;20028;-61
2024/03/14 09:07:40;;;;;;;4.80;1.05;;;;;;;;;;5064746;28;20028;-59
2024/03/14 09:10:16;;;;;;;3.58;0.82;;;;;;;;;;5070208;28;20144;-59
2024/03/14 09:12:43;;;;;;;2.80;0.70;;;;;;;;;;5066539;28;20032;-61
2024/03/14 09:15:09;;;;;;;2.40;0.85;;;;;;;;;;5067237;28;20499;-59
2024/03/14 09:17:35;;;;;;;7.53;1.02;;;;;;;;;;5068006;28;20070;-61
2024/03/14 09:20:00;;;;;;;20.85;1.38;;;;;;;;;;5068404;28;20052;-59
2024/03/14 09:22:26;;;;;;;8.15;0.90;;;;;;;;;;5052983;28;20105;-62
2024/03/14 09:24:51;;;;;;;7.93;0.90;;;;;;;;;;5070774;28;20396;-59
2024/03/14 09:27:17;;;;;;;2.20;0.65;;;;;;;;;;5059488;28;21438;-60
2024/03/14 09:29:42;;;;;;;3.67;0.80;;;;;;;;;;5064805;28;20123;-61
2024/03/14 09:32:08;;;;;;;1.50;0.65;;;;;;;;;;5077227;28;20040;-59
2024/03/14 09:34:38;;;;;;;2.40;0.70;;;;;;;;;;5073048;28;20036;-59
2024/03/14 09:37:03;;;;;;;4.53;0.98;;;;;;;;;;5070776;28;20036;-58
2024/03/14 09:39:35;;;;;;;5.57;0.80;;;;;;;;;;5074829;28;20399;-62
2024/03/14 09:42:01;;;;;;;2.00;0.73;;;;;;;;;;5070705;28;20116;-59
2024/03/14 09:44:27;;;;;;;1.77;0.60;;;;;;;;;;5071484;28;20441;-60
2024/03/14 09:47:05;;;;;;;3.85;1.17;;;;;;;;;;5071582;28;20039;-61
2024/03/14 09:49:32;;;;;;;0.98;0.60;;;;;;;;;;5053928;28;20041;-60
2024/03/14 09:51:58;;;;;;;1.45;0.70;;;;;;;;;;5054021;28;20056;-58
2024/03/14 09:54:26;;;;;;;1.33;0.73;;;;;;;;;;5072141;28;20126;-53
2024/03/14 09:56:51;;;;;;;1.75;0.77;;;;;;;;;;5053625;28;20479;-54
2024/03/14 09:59:17;;;;;;;2.67;0.73;;;;;;;;;;5053669;28;20043;-53
2024/03/14 10:01:46;;;;;;;1.52;0.60;;;;;;;;;;5071377;28;20036;-60
2024/03/14 10:04:12;;;;;;;2.50;1.00;;;;;;;;;;5054242;28;20387;-60
2024/03/14 10:06:40;;;;;;;2.45;0.80;;;;;;;;;;5071351;28;20040;-60
2024/03/14 10:09:11;;;;;;;1.52;0.70;;;;;;;;;;5069787;28;20050;-59
2024/03/14 10:11:38;;;;;;;2.88;0.90;;;;;;;;;;5072233;28;20121;-61
2024/03/14 10:14:06;;;;;;;3.08;0.82;;;;;;;;;;5071809;28;20044;-53
2024/03/14 10:16:32;;;;;;;0.98;0.50;;;;;;;;;;5071950;28;20032;-55
2024/03/14 10:18:58;;;;;;;1.70;0.73;;;;;;;;;;5071582;28;20379;-55
2024/03/14 10:21:24;;;;;;;2.40;0.95;;;;;;;;;;5071397;28;20039;-50
2024/03/14 10:23:50;;;;;;;2.50;0.93;;;;;;;;;;5072204;28;20044;-54
2024/03/14 10:26:16;;;;;;;1.42;0.70;;;;;;;;;;5069544;28;20032;-51
2024/03/14 10:28:41;;;;;;;1.90;0.88;;;;;;;;;;5071125;28;20568;-52
2024/03/14 10:31:07;;;;;;;1.83;0.70;;;;;;;;;;5071798;28;20024;-53
2024/03/14 10:33:33;;;;;;;1.50;0.70;;;;;;;;;;5071676;28;20047;-53
2024/03/14 10:35:59;;;;;;;2.90;0.60;;;;;;;;;;5070980;28;20226;-54
2024/03/14 10:38:35;;;;;;;2.08;0.77;;;;;;;;;;5071163;28;20048;-55
2024/03/14 10:41:09;;;;;;;1.73;0.85;;;;;;;;;;5067200;28;20449;-53
2024/03/14 10:43:41;;;;;;;1.70;0.80;;;;;;;;;;5071506;28;20049;-55
2024/03/14 10:46:13;;;;;;;1.88;0.82;;;;;;;;;;5069783;28;20072;-54
2024/03/14 10:48:39;;;;;;;1.48;0.75;;;;;;;;;;5071089;28;20142;-54
2024/03/14 10:51:06;;;;;;;3.55;0.70;;;;;;;;;;5071436;28;20105;-51
2024/03/14 10:53:33;;;;;;;1.50;0.80;;;;;;;;;;5053061;28;20505;-52
2024/03/14 10:55:59;;;;;;;2.53;0.80;;;;;;;;;;5071162;28;20036;-49
2024/03/14 10:58:26;;;;;;;4.15;0.80;;;;;;;;;;5053534;28;20051;-53
2024/03/14 11:00:53;;;;;;;1.13;0.60;;;;;;;;;;5070468;28;20460;-52
2024/03/14 11:03:18;;;;;;;1.70;0.70;;;;;;;;;;5053575;28;20071;-52
2024/03/14 11:05:50;;;;;;;1.70;0.90;;;;;;;;;;5069024;28;20079;-52
2024/03/14 11:08:16;;;;;;;1.02;0.63;;;;;;;;;;5058220;28;20028;-51
2024/03/14 11:10:43;;;;;;;1.35;0.70;;;;;;;;;;5052080;28;20043;-53
2024/03/14 11:13:18;;;;;;;3.20;0.70;;;;;;;;;;5053292;28;20040;-49
2024/03/14 11:15:44;;;;;;;2.58;0.80;;;;;;;;;;5052570;28;20510;-51
2024/03/14 11:18:13;;;;;;;1.70;0.70;;;;;;;;;;5053206;28;20036;-54
2024/03/14 11:20:42;;;;;;;2.58;0.85;;;;;;;;;;5070403;28;20507;-50
2024/03/14 11:23:12;;;;;;;3.55;0.90;;;;;;;;;;5070652;28;20032;-53
2024/03/14 11:25:42;;;;;;;1.77;0.77;;;;;;;;;;5052184;28;20764;-52
2024/03/14 11:28:08;;;;;;;2.08;0.80;;;;;;;;;;5052772;28;20174;-50
2024/03/14 11:30:33;;;;;;;1.33;0.70;;;;;;;;;;5068922;28;20442;-54
2024/03/14 11:33:06;;;;;;;1.15;0.68;;;;;;;;;;5070515;28;20487;-50
2024/03/14 11:35:43;;;;;;;1.40;0.70;;;;;;;;;;5052158;28;20416;-55
2024/03/14 11:38:15;;;;;;;1.55;0.68;;;;;;;;;;5070446;28;20064;-52
2024/03/14 11:40:40;;;;;;;1.05;0.65;;;;;;;;;;5069153;28;20543;-55
2024/03/14 11:43:06;;;;;;;1.65;0.60;;;;;;;;;;5070459;28;20166;-59
2024/03/14 11:45:31;;;;;;;2.03;0.70;;;;;;;;;;5069925;28;20088;-60
2024/03/14 11:47:57;;;;;;;1.30;0.70;;;;;;;;;;5069617;28;20115;-60
2024/03/14 11:50:25;;;;;;;1.08;0.60;;;;;;;;;;5069794;28;20040;-60
2024/03/14 11:52:53;;;;;;;1.25;0.60;;;;;;;;;;5070529;28;20052;-59
2024/03/14 11:55:19;;;;;;;2.72;0.90;;;;;;;;;;5069836;28;20040;-50
2024/03/14 11:57:47;;;;;;;3.40;0.77;;;;;;;;;;5070056;28;20760;-51
2024/03/14 12:00:20;;;;;;;1.75;0.80;;;;;;;;;;5069801;28;20535;-59
2024/03/14 12:02:46;;;;;;;1.23;0.70;;;;;;;;;;5069557;28;20082;-60
2024/03/14 12:05:19;;;;;;;1.15;0.60;;;;;;;;;;5069333;28;20044;-59
2024/03/14 12:07:46;;;;;;;1.45;0.70;;;;;;;;;;5070008;28;20032;-59
2024/03/14 12:10:11;;;;;;;1.77;0.80;;;;;;;;;;5069543;28;20484;-58
2024/03/14 12:12:37;;;;;;;1.38;0.70;;;;;;;;;;5069222;28;20032;-50
2024/03/14 12:15:03;;;;;;;2.05;0.80;;;;;;;;;;5070046;28;20082;-54
2024/03/14 12:17:29;;;;;;;1.77;0.77;;;;;;;;;;5061384;28;20040;-53
2024/03/14 12:19:54;;;;;;;1.52;0.60;;;;;;;;;;5069224;28;20048;-51
2024/03/14 12:22:21;;;;;;;1.92;0.90;;;;;;;;;;5069219;28;20044;-52
2024/03/14 12:24:58;;;;;;;1.70;0.70;;;;;;;;;;5069546;28;20040;-52
2024/03/14 12:27:24;;;;;;;2.08;0.80;;;;;;;;;;5069046;28;20029;-53
2024/03/14 12:29:50;;;;;;;1.50;0.88;;;;;;;;;;5069659;28;20059;-53
2024/03/14 12:32:18;;;;;;;0.75;0.50;;;;;;;;;;5069174;28;20460;-53
2024/03/14 12:34:44;;;;;;;1.65;0.77;;;;;;;;;;5069435;28;20035;-53
2024/03/14 12:37:12;;;;;;;1.42;0.80;;;;;;;;;;5069544;28;20123;-50
2024/03/14 12:39:38;;;;;;;2.65;0.70;;;;;;;;;;5069311;28;20033;-50
2024/03/14 12:42:05;;;;;;;2.28;1.10;;;;;;;;;;5067424;28;20028;-52
2024/03/14 12:44:30;;;;;;;1.55;0.77;;;;;;;;;;5069553;28;20041;-52
2024/03/14 12:46:55;;;;;;;3.03;0.98;;;;;;;;;;5069550;28;20086;-50
2024/03/14 12:49:21;;;;;;;1.70;0.75;;;;;;;;;;5051386;28;20105;-51
2024/03/14 12:51:54;;;;;;;2.37;0.87;;;;;;;;;;5051250;28;20480;-50
2024/03/14 12:54:21;;;;;;;1.63;0.80;;;;;;;;;;5062172;28;20111;-59
2024/03/14 12:56:51;;;;;;;1.85;0.90;;;;;;;;;;5067777;28;20055;-59
2024/03/14 12:59:18;;;;;;;1.67;0.70;;;;;;;;;;5052602;28;20040;-58
2024/03/14 13:01:43;;;;;;;1.80;0.80;;;;;;;;;;5062922;28;20029;-59
2024/03/14 13:04:10;;;;;;;1.65;0.80;;;;;;;;;;5061041;28;20253;-58
2024/03/14 13:06:36;;;;;;;1.92;0.88;;;;;;;;;;5065870;28;20040;-58
2024/03/14 13:09:20;;;;;;;1.90;0.90;;;;;;;;;;5064862;28;20025;-61
2024/03/14 13:12:04;;;;;;;;;;;;;;;;;;5054016;28;20064;-60
2024/03/14 13:14:29;;;;;;;2.28;0.88;;;;;;;;;;5068960;28;20449;-59
2024/03/14 13:16:55;;;;;;;1.30;0.80;;;;;;;;;;5060961;28;20037;-59
2024/03/14 13:19:22;;;;;;;1.13;0.68;;;;;;;;;;5042882;28;20106;-58
2024/03/14 13:21:48;;;;;;;1.88;0.90;;;;;;;;;;5061111;28;20119;-58
2024/03/14 13:24:13;;;;;;;1.85;0.73;;;;;;;;;;5069003;28;20120;-57
2024/03/14 13:26:40;;;;;;;3.83;0.90;;;;;;;;;;5065674;28;20061;-59
2024/03/14 13:29:08;;;;;;;1.13;0.70;;;;;;;;;;5068455;28;20531;-58
2024/03/14 13:31:34;;;;;;;2.30;0.75;;;;;;;;;;5066557;28;20037;-58
2024/03/14 13:33:59;;;;;;;1.40;0.70;;;;;;;;;;5068422;28;20048;-58
2024/03/14 13:36:26;;;;;;;2.45;1.00;;;;;;;;;;5067683;28;20037;-59
2024/03/14 13:38:52;;;;;;;1.88;0.82;;;;;;;;;;5066224;28;20407;-58
2024/03/14 13:41:19;;;;;;;2.15;0.75;;;;;;;;;;5065012;28;20040;-57
2024/03/14 13:43:45;;;;;;;1.65;0.82;;;;;;;;;;5064343;28;20025;-58
2024/03/14 13:46:11;;;;;;;3.40;0.70;;;;;;;;;;5057772;28;20048;-58
2024/03/14 13:48:36;;;;;;;2.22;0.80;;;;;;;;;;5058120;28;20040;-59
2024/03/14 13:51:02;;;;;;;2.00;0.90;;;;;;;;;;5067595;28;20487;-58
2024/03/14 13:53:28;;;;;;;1.40;0.80;;;;;;;;;;5068222;28;20092;-59
2024/03/14 13:55:56;;;;;;;2.10;0.70;;;;;;;;;;5068731;28;20040;-58
2024/03/14 13:58:21;;;;;;;2.35;1.00;;;;;;;;;;5066204;28;20033;-58
2024/03/14 14:00:50;;;;;;;2.05;0.90;;;;;;;;;;5059367;28;20142;-59
2024/03/14 14:03:20;;;;;;;1.95;0.80;;;;;;;;;;5054953;28;20036;-56
2024/03/14 14:05:46;;;;;;;2.08;0.90;;;;;;;;;;5065123;28;20642;-59
2024/03/14 14:08:11;;;;;;;2.90;0.80;;;;;;;;;;5065028;28;20040;-58
2024/03/14 14:10:37;;;;;;;1.80;0.80;;;;;;;;;;5063712;28;20032;-59
2024/03/14 14:13:03;;;;;;;2.35;1.00;;;;;;;;;;5068707;28;20403;-57
2024/03/14 14:15:29;;;;;;;2.53;0.98;;;;;;;;;;5068533;28;20040;-58
2024/03/14 14:17:54;;;;;;;6.90;1.00;;;;;;;;;;5068157;28;20039;-58
2024/03/14 14:20:23;;;;;;;4.90;0.95;;;;;;;;;;5068524;28;20048;-58
2024/03/14 14:22:48;;;;;;;2.33;1.00;;;;;;;;;;5067432;28;20036;-62
2024/03/14 14:25:14;;;;;;;4.95;1.13;;;;;;;;;;5068051;28;20040;-58
2024/03/14 14:27:40;;;;;;;5.97;1.20;;;;;;;;;;5068907;28;20042;-59
2024/03/14 14:30:06;;;;;;;2.00;0.80;;;;;;;;;;5068410;28;20040;-59
2024/03/14 14:32:32;;;;;;;2.45;0.80;;;;;;;;;;5067866;28;20059;-57
2024/03/14 14:34:57;;;;;;;2.75;1.00;;;;;;;;;;5067532;28;20044;-59
2024/03/14 14:37:23;;;;;;;3.40;0.77;;;;;;;;;;5067975;28;20040;-59
2024/03/14 14:39:48;;;;;;;2.80;0.93;;;;;;;;;;5067525;28;20044;-57
2024/03/14 14:42:15;;;;;;;4.80;1.08;;;;;;;;;;5074610;28;20032;-57
2024/03/14 14:44:41;;;;;;;4.03;1.05;;;;;;;;;;5067410;28;20488;-57